Terminal Aerodrome Forecast
Issued by NWS Portland, ME

Home | Current Version | Previous Version | Text Only | Print | Product List | Glossary On
Versions: 1 2 3 4 5 6 7 8 9 10 11 12 13 14 15 16 17 18 19 20 21 22 23 24
000
FTUS41 KGYX 211920 AAE
TAFCON
TAF AMD
KCON 211920Z 2119/2218 31003KT P6SM -SN OVC040
      TEMPO 2119/2122 P6SM NSW BKN025
     FM212200 00000KT P6SM OVC050
     FM221100 00000KT P6SM OVC025=

USA.gov is the U.S. government's official web portal to all federal, state and local government web resources and services.